sensor_id;sensor_type;location;lat;lon;timestamp;P1;P2;P0
49708;PMS5003;35601;55.902;13.606;2023-02-28T00:02:11;6;6;
49708;PMS5003;35601;55.902;13.606;2023-02-28T00:04:36;6;5;
49708;PMS5003;35601;55.902;13.606;2023-02-28T00:07:02;6;5;
49708;PMS5003;35601;55.902;13.606;2023-02-28T00:09:27;5;4;
49708;PMS5003;35601;55.902;13.606;2023-02-28T00:11:52;5;5;
49708;PMS5003;35601;55.902;13.606;2023-02-28T00:14:18;6;6;
49708;PMS5003;35601;55.902;13.606;2023-02-28T00:16:43;6;5;
49708;PMS5003;35601;55.902;13.606;2023-02-28T00:19:09;7;6;
49708;PMS5003;35601;55.902;13.606;2023-02-28T00:21:34;9;7;
49708;PMS5003;35601;55.902;13.606;2023-02-28T00:23:59;6;6;
49708;PMS5003;35601;55.902;13.606;2023-02-28T00:26:25;6;5;
49708;PMS5003;35601;55.902;13.606;2023-02-28T00:28:51;5;5;
49708;PMS5003;35601;55.902;13.606;2023-02-28T00:31:15;10;8;
49708;PMS5003;35601;55.902;13.606;2023-02-28T00:33:41;13;9;
49708;PMS5003;35601;55.902;13.606;2023-02-28T00:36:07;11;9;
49708;PMS5003;35601;55.902;13.606;2023-02-28T00:38:32;6;6;
49708;PMS5003;35601;55.902;13.606;2023-02-28T00:40:57;8;6;
49708;PMS5003;35601;55.902;13.606;2023-02-28T00:43:22;4;4;
49708;PMS5003;35601;55.902;13.606;2023-02-28T00:45:48;5;5;
49708;PMS5003;35601;55.902;13.606;2023-02-28T00:48:13;12;8;
49708;PMS5003;35601;55.902;13.606;2023-02-28T00:50:39;4;4;
49708;PMS5003;35601;55.902;13.606;2023-02-28T00:53:04;6;6;
49708;PMS5003;35601;55.902;13.606;2023-02-28T00:55:30;5;5;
49708;PMS5003;35601;55.902;13.606;2023-02-28T00:57:55;5;5;
49708;PMS5003;35601;55.902;13.606;2023-02-28T01:00:20;8;6;
49708;PMS5003;35601;55.902;13.606;2023-02-28T01:02:45;6;6;
49708;PMS5003;35601;55.902;13.606;2023-02-28T01:05:11;8;6;
49708;PMS5003;35601;55.902;13.606;2023-02-28T01:07:36;9;5;
49708;PMS5003;35601;55.902;13.606;2023-02-28T01:10:02;10;6;
49708;PMS5003;35601;55.902;13.606;2023-02-28T01:12:27;6;6;
49708;PMS5003;35601;55.902;13.606;2023-02-28T01:14:53;5;5;
49708;PMS5003;35601;55.902;13.606;2023-02-28T01:17:20;6;6;
49708;PMS5003;35601;55.902;13.606;2023-02-28T01:19:44;8;5;
49708;PMS5003;35601;55.902;13.606;2023-02-28T01:22:09;3;3;
49708;PMS5003;35601;55.902;13.606;2023-02-28T01:24:34;6;6;
49708;PMS5003;35601;55.902;13.606;2023-02-28T01:27:00;6;5;
49708;PMS5003;35601;55.902;13.606;2023-02-28T01:29:25;5;5;
49708;PMS5003;35601;55.902;13.606;2023-02-28T01:31:51;8;8;
49708;PMS5003;35601;55.902;13.606;2023-02-28T01:34:16;8;5;
49708;PMS5003;35601;55.902;13.606;2023-02-28T01:36:42;8;8;
49708;PMS5003;35601;55.902;13.606;2023-02-28T01:39:07;8;5;
49708;PMS5003;35601;55.902;13.606;2023-02-28T01:41:33;6;4;
49708;PMS5003;35601;55.902;13.606;2023-02-28T01:44:00;9;6;
49708;PMS5003;35601;55.902;13.606;2023-02-28T01:46:23;11;9;
49708;PMS5003;35601;55.902;13.606;2023-02-28T01:48:50;6;6;
49708;PMS5003;35601;55.902;13.606;2023-02-28T01:51:15;5;5;
49708;PMS5003;35601;55.902;13.606;2023-02-28T01:53:41;5;5;
49708;PMS5003;35601;55.902;13.606;2023-02-28T01:56:05;8;8;
49708;PMS5003;35601;55.902;13.606;2023-02-28T01:58:30;7;7;
49708;PMS5003;35601;55.902;13.606;2023-02-28T02:00:56;11;7;
49708;PMS5003;35601;55.902;13.606;2023-02-28T02:03:22;10;8;
49708;PMS5003;35601;55.902;13.606;2023-02-28T02:05:47;9;8;
49708;PMS5003;35601;55.902;13.606;2023-02-28T02:08:13;8;8;
49708;PMS5003;35601;55.902;13.606;2023-02-28T02:10:39;8;7;
49708;PMS5003;35601;55.902;13.606;2023-02-28T02:13:08;11;8;
49708;PMS5003;35601;55.902;13.606;2023-02-28T02:15:29;9;9;
49708;PMS5003;35601;55.902;13.606;2023-02-28T02:17:56;7;7;
49708;PMS5003;35601;55.902;13.606;2023-02-28T02:25:12;7;5;
49708;PMS5003;35601;55.902;13.606;2023-02-28T02:27:39;5;5;
49708;PMS5003;35601;55.902;13.606;2023-02-28T02:34:56;5;5;
49708;PMS5003;35601;55.902;13.606;2023-02-28T02:37:24;7;5;
49708;PMS5003;35601;55.902;13.606;2023-02-28T02:39:45;7;5;
49708;PMS5003;35601;55.902;13.606;2023-02-28T02:42:11;9;9;
49708;PMS5003;35601;55.902;13.606;2023-02-28T02:44:36;5;5;
49708;PMS5003;35601;55.902;13.606;2023-02-28T02:47:01;8;7;
49708;PMS5003;35601;55.902;13.606;2023-02-28T02:49:26;8;4;
49708;PMS5003;35601;55.902;13.606;2023-02-28T02:51:50;5;5;
49708;PMS5003;35601;55.902;13.606;2023-02-28T02:54:17;5;4;
49708;PMS5003;35601;55.902;13.606;2023-02-28T02:56:41;5;4;
49708;PMS5003;35601;55.902;13.606;2023-02-28T02:59:07;7;5;
49708;PMS5003;35601;55.902;13.606;2023-02-28T03:01:32;7;5;
49708;PMS5003;35601;55.902;13.606;2023-02-28T03:03:59;5;5;
49708;PMS5003;35601;55.902;13.606;2023-02-28T03:06:23;5;5;
49708;PMS5003;35601;55.902;13.606;2023-02-28T03:08:48;11;7;
49708;PMS5003;35601;55.902;13.606;2023-02-28T03:11:14;7;4;
49708;PMS5003;35601;55.902;13.606;2023-02-28T03:13:47;7;5;
49708;PMS5003;35601;55.902;13.606;2023-02-28T03:16:12;5;5;
49708;PMS5003;35601;55.902;13.606;2023-02-28T03:18:31;4;4;
49708;PMS5003;35601;55.902;13.606;2023-02-28T03:20:57;4;3;
49708;PMS5003;35601;55.902;13.606;2023-02-28T03:23:21;7;4;
49708;PMS5003;35601;55.902;13.606;2023-02-28T03:25:53;7;7;
49708;PMS5003;35601;55.902;13.606;2023-02-28T03:28:13;5;4;
49708;PMS5003;35601;55.902;13.606;2023-02-28T03:30:40;10;4;
49708;PMS5003;35601;55.902;13.606;2023-02-28T03:33:03;7;7;
49708;PMS5003;35601;55.902;13.606;2023-02-28T03:35:30;8;5;
49708;PMS5003;35601;55.902;13.606;2023-02-28T03:37:58;8;7;
49708;PMS5003;35601;55.902;13.606;2023-02-28T03:40:20;10;7;
49708;PMS5003;35601;55.902;13.606;2023-02-28T03:42:46;9;5;
49708;PMS5003;35601;55.902;13.606;2023-02-28T03:45:11;8;5;
49708;PMS5003;35601;55.902;13.606;2023-02-28T03:47:37;5;5;
49708;PMS5003;35601;55.902;13.606;2023-02-28T03:50:03;7;5;
49708;PMS5003;35601;55.902;13.606;2023-02-28T03:52:27;10;5;
49708;PMS5003;35601;55.902;13.606;2023-02-28T03:54:53;7;7;
49708;PMS5003;35601;55.902;13.606;2023-02-28T03:57:22;10;5;
49708;PMS5003;35601;55.902;13.606;2023-02-28T03:59:44;7;7;
49708;PMS5003;35601;55.902;13.606;2023-02-28T04:02:10;5;4;
49708;PMS5003;35601;55.902;13.606;2023-02-28T04:04:35;8;8;
49708;PMS5003;35601;55.902;13.606;2023-02-28T04:07:01;9;8;
49708;PMS5003;35601;55.902;13.606;2023-02-28T04:09:27;8;8;
49708;PMS5003;35601;55.902;13.606;2023-02-28T04:11:52;11;8;
49708;PMS5003;35601;55.902;13.606;2023-02-28T04:14:16;8;7;
49708;PMS5003;35601;55.902;13.606;2023-02-28T04:16:41;8;8;
49708;PMS5003;35601;55.902;13.606;2023-02-28T04:19:08;9;9;
49708;PMS5003;35601;55.902;13.606;2023-02-28T04:21:33;10;9;
49708;PMS5003;35601;55.902;13.606;2023-02-28T04:23:58;11;8;
49708;PMS5003;35601;55.902;13.606;2023-02-28T04:26:25;8;8;
49708;PMS5003;35601;55.902;13.606;2023-02-28T04:28:49;9;8;
49708;PMS5003;35601;55.902;13.606;2023-02-28T04:31:14;7;4;
49708;PMS5003;35601;55.902;13.606;2023-02-28T04:33:41;9;5;
49708;PMS5003;35601;55.902;13.606;2023-02-28T04:36:06;7;4;
49708;PMS5003;35601;55.902;13.606;2023-02-28T04:38:32;4;4;
49708;PMS5003;35601;55.902;13.606;2023-02-28T04:40:58;5;5;
49708;PMS5003;35601;55.902;13.606;2023-02-28T04:43:23;7;5;
49708;PMS5003;35601;55.902;13.606;2023-02-28T04:45:48;8;5;
49708;PMS5003;35601;55.902;13.606;2023-02-28T04:48:12;5;5;
49708;PMS5003;35601;55.902;13.606;2023-02-28T04:50:38;9;7;
49708;PMS5003;35601;55.902;13.606;2023-02-28T04:53:05;7;7;
49708;PMS5003;35601;55.902;13.606;2023-02-28T04:55:30;10;8;
49708;PMS5003;35601;55.902;13.606;2023-02-28T04:57:54;9;7;
49708;PMS5003;35601;55.902;13.606;2023-02-28T05:00:20;8;8;
49708;PMS5003;35601;55.902;13.606;2023-02-28T05:02:45;4;4;
49708;PMS5003;35601;55.902;13.606;2023-02-28T05:05:10;11;9;
49708;PMS5003;35601;55.902;13.606;2023-02-28T05:07:37;13;11;
49708;PMS5003;35601;55.902;13.606;2023-02-28T05:10:03;10;9;
49708;PMS5003;35601;55.902;13.606;2023-02-28T05:12:27;8;7;
49708;PMS5003;35601;55.902;13.606;2023-02-28T05:14:52;13;10;
49708;PMS5003;35601;55.902;13.606;2023-02-28T05:17:18;14;10;
49708;PMS5003;35601;55.902;13.606;2023-02-28T05:19:44;10;10;
49708;PMS5003;35601;55.902;13.606;2023-02-28T05:22:13;10;9;
49708;PMS5003;35601;55.902;13.606;2023-02-28T05:24:34;13;10;
49708;PMS5003;35601;55.902;13.606;2023-02-28T05:27:00;9;8;
49708;PMS5003;35601;55.902;13.606;2023-02-28T05:29:25;11;8;
49708;PMS5003;35601;55.902;13.606;2023-02-28T05:31:51;8;8;
49708;PMS5003;35601;55.902;13.606;2023-02-28T05:34:17;8;7;
49708;PMS5003;35601;55.902;13.606;2023-02-28T05:36:42;9;9;
49708;PMS5003;35601;55.902;13.606;2023-02-28T05:39:07;15;11;
49708;PMS5003;35601;55.902;13.606;2023-02-28T05:41:33;15;13;
49708;PMS5003;35601;55.902;13.606;2023-02-28T05:43:58;15;14;
49708;PMS5003;35601;55.902;13.606;2023-02-28T05:46:24;13;13;
49708;PMS5003;35601;55.902;13.606;2023-02-28T05:48:49;13;13;
49708;PMS5003;35601;55.902;13.606;2023-02-28T05:51:15;16;16;
49708;PMS5003;35601;55.902;13.606;2023-02-28T05:53:41;15;15;
49708;PMS5003;35601;55.902;13.606;2023-02-28T05:56:05;16;15;
49708;PMS5003;35601;55.902;13.606;2023-02-28T05:58:30;14;13;
49708;PMS5003;35601;55.902;13.606;2023-02-28T06:00:56;10;10;
49708;PMS5003;35601;55.902;13.606;2023-02-28T06:03:22;10;8;
49708;PMS5003;35601;55.902;13.606;2023-02-28T06:05:47;10;9;
49708;PMS5003;35601;55.902;13.606;2023-02-28T06:08:14;13;9;
49708;PMS5003;35601;55.902;13.606;2023-02-28T06:10:38;53;40;
49708;PMS5003;35601;55.902;13.606;2023-02-28T06:13:04;31;22;
49708;PMS5003;35601;55.902;13.606;2023-02-28T06:15:29;25;19;
49708;PMS5003;35601;55.902;13.606;2023-02-28T06:17:54;51;41;
49708;PMS5003;35601;55.902;13.606;2023-02-28T06:20:21;26;21;
49708;PMS5003;35601;55.902;13.606;2023-02-28T06:22:47;22;19;
49708;PMS5003;35601;55.902;13.606;2023-02-28T06:25:12;20;16;
49708;PMS5003;35601;55.902;13.606;2023-02-28T06:27:37;20;20;
49708;PMS5003;35601;55.902;13.606;2023-02-28T06:30:01;35;28;
49708;PMS5003;35601;55.902;13.606;2023-02-28T06:32:27;34;28;
49708;PMS5003;35601;55.902;13.606;2023-02-28T06:34:53;45;38;
49708;PMS5003;35601;55.902;13.606;2023-02-28T06:37:19;24;21;
49708;PMS5003;35601;55.902;13.606;2023-02-28T06:39:45;20;20;
49708;PMS5003;35601;55.902;13.606;2023-02-28T06:42:10;24;16;
49708;PMS5003;35601;55.902;13.606;2023-02-28T06:44:35;16;14;
49708;PMS5003;35601;55.902;13.606;2023-02-28T06:47:00;16;15;
49708;PMS5003;35601;55.902;13.606;2023-02-28T06:49:27;21;17;
49708;PMS5003;35601;55.902;13.606;2023-02-28T06:51:51;18;15;
49708;PMS5003;35601;55.902;13.606;2023-02-28T06:54:16;22;18;
49708;PMS5003;35601;55.902;13.606;2023-02-28T06:56:41;22;17;
49708;PMS5003;35601;55.902;13.606;2023-02-28T06:59:07;23;18;
49708;PMS5003;35601;55.902;13.606;2023-02-28T07:01:32;35;21;
49708;PMS5003;35601;55.902;13.606;2023-02-28T07:03:58;32;25;
49708;PMS5003;35601;55.902;13.606;2023-02-28T07:06:25;48;37;
49708;PMS5003;35601;55.902;13.606;2023-02-28T07:08:49;50;38;
49708;PMS5003;35601;55.902;13.606;2023-02-28T07:11:14;44;38;
49708;PMS5003;35601;55.902;13.606;2023-02-28T07:13:39;47;40;
49708;PMS5003;35601;55.902;13.606;2023-02-28T07:16:07;40;34;
49708;PMS5003;35601;55.902;13.606;2023-02-28T07:18:30;47;38;
49708;PMS5003;35601;55.902;13.606;2023-02-28T07:20:56;65;50;
49708;PMS5003;35601;55.902;13.606;2023-02-28T07:23:22;90;72;
49708;PMS5003;35601;55.902;13.606;2023-02-28T07:25:46;80;66;
49708;PMS5003;35601;55.902;13.606;2023-02-28T07:28:13;74;70;
49708;PMS5003;35601;55.902;13.606;2023-02-28T07:30:37;83;70;
49708;PMS5003;35601;55.902;13.606;2023-02-28T07:33:02;84;75;
49708;PMS5003;35601;55.902;13.606;2023-02-28T07:35:29;90;76;
49708;PMS5003;35601;55.902;13.606;2023-02-28T07:37:52;75;69;
49708;PMS5003;35601;55.902;13.606;2023-02-28T07:40:19;59;50;
49708;PMS5003;35601;55.902;13.606;2023-02-28T07:42:44;39;38;
49708;PMS5003;35601;55.902;13.606;2023-02-28T07:45:10;47;40;
49708;PMS5003;35601;55.902;13.606;2023-02-28T07:47:34;53;42;
49708;PMS5003;35601;55.902;13.606;2023-02-28T07:50:01;43;38;
49708;PMS5003;35601;55.902;13.606;2023-02-28T07:52:25;40;31;
49708;PMS5003;35601;55.902;13.606;2023-02-28T07:54:52;39;32;
49708;PMS5003;35601;55.902;13.606;2023-02-28T07:57:17;44;29;
49708;PMS5003;35601;55.902;13.606;2023-02-28T07:59:42;43;32;
49708;PMS5003;35601;55.902;13.606;2023-02-28T08:02:08;42;39;
49708;PMS5003;35601;55.902;13.606;2023-02-28T08:04:33;39;34;
49708;PMS5003;35601;55.902;13.606;2023-02-28T08:06:59;42;34;
49708;PMS5003;35601;55.902;13.606;2023-02-28T08:09:26;49;39;
49708;PMS5003;35601;55.902;13.606;2023-02-28T08:11:49;41;31;
49708;PMS5003;35601;55.902;13.606;2023-02-28T08:14:15;31;26;
49708;PMS5003;35601;55.902;13.606;2023-02-28T08:16:41;42;28;
49708;PMS5003;35601;55.902;13.606;2023-02-28T08:19:06;36;28;
49708;PMS5003;35601;55.902;13.606;2023-02-28T08:21:33;29;25;
49708;PMS5003;35601;55.902;13.606;2023-02-28T08:23:57;31;26;
49708;PMS5003;35601;55.902;13.606;2023-02-28T08:26:22;33;31;
49708;PMS5003;35601;55.902;13.606;2023-02-28T08:28:48;33;23;
49708;PMS5003;35601;55.902;13.606;2023-02-28T08:31:14;38;28;
49708;PMS5003;35601;55.902;13.606;2023-02-28T08:33:38;35;27;
49708;PMS5003;35601;55.902;13.606;2023-02-28T08:36:03;31;23;
49708;PMS5003;35601;55.902;13.606;2023-02-28T08:38:28;28;25;
49708;PMS5003;35601;55.902;13.606;2023-02-28T08:40:58;33;27;
49708;PMS5003;35601;55.902;13.606;2023-02-28T08:43:20;26;23;
49708;PMS5003;35601;55.902;13.606;2023-02-28T08:45:45;35;32;
49708;PMS5003;35601;55.902;13.606;2023-02-28T08:48:11;26;24;
49708;PMS5003;35601;55.902;13.606;2023-02-28T08:50:37;28;21;
49708;PMS5003;35601;55.902;13.606;2023-02-28T08:53:02;27;27;
49708;PMS5003;35601;55.902;13.606;2023-02-28T08:55:27;29;22;
49708;PMS5003;35601;55.902;13.606;2023-02-28T08:57:53;34;27;
49708;PMS5003;35601;55.902;13.606;2023-02-28T09:00:18;25;22;
49708;PMS5003;35601;55.902;13.606;2023-02-28T09:02:43;26;22;
49708;PMS5003;35601;55.902;13.606;2023-02-28T09:05:09;33;28;
49708;PMS5003;35601;55.902;13.606;2023-02-28T09:07:34;31;26;
49708;PMS5003;35601;55.902;13.606;2023-02-28T09:09:59;31;28;
49708;PMS5003;35601;55.902;13.606;2023-02-28T09:12:25;32;26;
49708;PMS5003;35601;55.902;13.606;2023-02-28T09:14:50;26;23;
49708;PMS5003;35601;55.902;13.606;2023-02-28T09:17:15;30;25;
49708;PMS5003;35601;55.902;13.606;2023-02-28T09:19:40;40;33;
49708;PMS5003;35601;55.902;13.606;2023-02-28T09:22:06;35;27;
49708;PMS5003;35601;55.902;13.606;2023-02-28T09:24:32;35;29;
49708;PMS5003;35601;55.902;13.606;2023-02-28T09:26:58;43;33;
49708;PMS5003;35601;55.902;13.606;2023-02-28T09:29:23;39;28;
49708;PMS5003;35601;55.902;13.606;2023-02-28T09:31:48;43;34;
49708;PMS5003;35601;55.902;13.606;2023-02-28T09:34:13;36;28;
49708;PMS5003;35601;55.902;13.606;2023-02-28T09:36:39;41;36;
49708;PMS5003;35601;55.902;13.606;2023-02-28T09:39:04;45;31;
49708;PMS5003;35601;55.902;13.606;2023-02-28T09:41:32;41;34;
49708;PMS5003;35601;55.902;13.606;2023-02-28T09:43:56;38;31;
49708;PMS5003;35601;55.902;13.606;2023-02-28T09:46:27;44;33;
49708;PMS5003;35601;55.902;13.606;2023-02-28T09:48:46;44;34;
49708;PMS5003;35601;55.902;13.606;2023-02-28T09:51:15;46;35;
49708;PMS5003;35601;55.902;13.606;2023-02-28T09:53:37;40;28;
49708;PMS5003;35601;55.902;13.606;2023-02-28T09:56:04;32;27;
49708;PMS5003;35601;55.902;13.606;2023-02-28T09:58:30;49;39;
49708;PMS5003;35601;55.902;13.606;2023-02-28T10:00:56;54;41;
49708;PMS5003;35601;55.902;13.606;2023-02-28T10:03:25;56;39;
49708;PMS5003;35601;55.902;13.606;2023-02-28T10:05:49;49;37;
49708;PMS5003;35601;55.902;13.606;2023-02-28T10:08:11;49;36;
49708;PMS5003;35601;55.902;13.606;2023-02-28T10:10:36;37;36;
49708;PMS5003;35601;55.902;13.606;2023-02-28T10:13:01;52;43;
49708;PMS5003;35601;55.902;13.606;2023-02-28T10:15:27;47;39;
49708;PMS5003;35601;55.902;13.606;2023-02-28T10:17:53;43;34;
49708;PMS5003;35601;55.902;13.606;2023-02-28T10:20:18;45;39;
49708;PMS5003;35601;55.902;13.606;2023-02-28T10:22:44;49;40;
49708;PMS5003;35601;55.902;13.606;2023-02-28T10:25:15;54;41;
49708;PMS5003;35601;55.902;13.606;2023-02-28T10:27:34;43;36;
49708;PMS5003;35601;55.902;13.606;2023-02-28T10:30:00;51;38;
49708;PMS5003;35601;55.902;13.606;2023-02-28T10:32:26;48;36;
49708;PMS5003;35601;55.902;13.606;2023-02-28T10:34:51;40;36;
49708;PMS5003;35601;55.902;13.606;2023-02-28T10:37:16;44;37;
49708;PMS5003;35601;55.902;13.606;2023-02-28T10:39:42;44;39;
49708;PMS5003;35601;55.902;13.606;2023-02-28T10:44:33;51;41;
49708;PMS5003;35601;55.902;13.606;2023-02-28T10:46:59;40;33;
49708;PMS5003;35601;55.902;13.606;2023-02-28T10:49:25;45;38;
49708;PMS5003;35601;55.902;13.606;2023-02-28T10:51:51;42;35;
49708;PMS5003;35601;55.902;13.606;2023-02-28T10:54:16;45;38;
49708;PMS5003;35601;55.902;13.606;2023-02-28T10:56:41;44;36;
49708;PMS5003;35601;55.902;13.606;2023-02-28T11:01:36;50;45;
49708;PMS5003;35601;55.902;13.606;2023-02-28T11:03:57;42;37;
49708;PMS5003;35601;55.902;13.606;2023-02-28T11:06:23;38;35;
49708;PMS5003;35601;55.902;13.606;2023-02-28T11:08:49;38;32;
49708;PMS5003;35601;55.902;13.606;2023-02-28T11:11:14;42;33;
49708;PMS5003;35601;55.902;13.606;2023-02-28T11:13:40;47;39;
49708;PMS5003;35601;55.902;13.606;2023-02-28T11:16:06;38;34;
49708;PMS5003;35601;55.902;13.606;2023-02-28T11:18:32;36;32;
49708;PMS5003;35601;55.902;13.606;2023-02-28T11:20:57;29;27;
49708;PMS5003;35601;55.902;13.606;2023-02-28T11:23:21;34;30;
49708;PMS5003;35601;55.902;13.606;2023-02-28T11:25:47;31;25;
49708;PMS5003;35601;55.902;13.606;2023-02-28T11:30:38;23;21;
49708;PMS5003;35601;55.902;13.606;2023-02-28T11:35:30;28;24;
49708;PMS5003;35601;55.902;13.606;2023-02-28T11:37:55;31;26;
49708;PMS5003;35601;55.902;13.606;2023-02-28T11:40:21;26;21;
49708;PMS5003;35601;55.902;13.606;2023-02-28T11:42:48;23;21;
49708;PMS5003;35601;55.902;13.606;2023-02-28T11:45:12;26;24;
49708;PMS5003;35601;55.902;13.606;2023-02-28T11:47:38;27;19;
49708;PMS5003;35601;55.902;13.606;2023-02-28T11:50:07;25;24;
49708;PMS5003;35601;55.902;13.606;2023-02-28T11:52:29;20;19;
49708;PMS5003;35601;55.902;13.606;2023-02-28T11:54:58;23;21;
49708;PMS5003;35601;55.902;13.606;2023-02-28T11:57:24;22;20;
49708;PMS5003;35601;55.902;13.606;2023-02-28T11:59:48;21;21;
49708;PMS5003;35601;55.902;13.606;2023-02-28T12:04:37;22;19;
49708;PMS5003;35601;55.902;13.606;2023-02-28T12:07:03;23;19;
49708;PMS5003;35601;55.902;13.606;2023-02-28T12:09:32;26;20;
49708;PMS5003;35601;55.902;13.606;2023-02-28T12:11:53;23;21;
49708;PMS5003;35601;55.902;13.606;2023-02-28T12:14:22;20;19;
49708;PMS5003;35601;55.902;13.606;2023-02-28T12:16:46;25;21;
49708;PMS5003;35601;55.902;13.606;2023-02-28T12:19:13;24;20;
49708;PMS5003;35601;55.902;13.606;2023-02-28T12:21:40;24;20;
49708;PMS5003;35601;55.902;13.606;2023-02-28T12:26:27;23;21;
49708;PMS5003;35601;55.902;13.606;2023-02-28T12:28:52;28;23;
49708;PMS5003;35601;55.902;13.606;2023-02-28T12:31:17;23;19;
49708;PMS5003;35601;55.902;13.606;2023-02-28T12:33:42;25;21;
49708;PMS5003;35601;55.902;13.606;2023-02-28T12:36:09;30;24;
49708;PMS5003;35601;55.902;13.606;2023-02-28T12:38:34;28;21;
49708;PMS5003;35601;55.902;13.606;2023-02-28T12:40:59;22;21;
49708;PMS5003;35601;55.902;13.606;2023-02-28T12:43:25;20;19;
49708;PMS5003;35601;55.902;13.606;2023-02-28T12:45:50;24;19;
49708;PMS5003;35601;55.902;13.606;2023-02-28T12:48:17;21;18;
49708;PMS5003;35601;55.902;13.606;2023-02-28T12:50:41;24;23;
49708;PMS5003;35601;55.902;13.606;2023-02-28T12:53:06;24;22;
49708;PMS5003;35601;55.902;13.606;2023-02-28T12:55:33;21;20;
49708;PMS5003;35601;55.902;13.606;2023-02-28T12:57:58;27;23;
49708;PMS5003;35601;55.902;13.606;2023-02-28T13:00:23;23;21;
49708;PMS5003;35601;55.902;13.606;2023-02-28T13:05:19;24;22;
49708;PMS5003;35601;55.902;13.606;2023-02-28T13:07:46;24;21;
49708;PMS5003;35601;55.902;13.606;2023-02-28T13:10:06;17;16;
49708;PMS5003;35601;55.902;13.606;2023-02-28T13:12:31;26;23;
49708;PMS5003;35601;55.902;13.606;2023-02-28T13:15:02;18;18;
49708;PMS5003;35601;55.902;13.606;2023-02-28T13:17:23;20;20;
49708;PMS5003;35601;55.902;13.606;2023-02-28T13:22:16;20;17;
49708;PMS5003;35601;55.902;13.606;2023-02-28T13:24:41;17;14;
49708;PMS5003;35601;55.902;13.606;2023-02-28T13:29:30;15;13;
49708;PMS5003;35601;55.902;13.606;2023-02-28T13:34:21;13;13;
49708;PMS5003;35601;55.902;13.606;2023-02-28T13:36:47;15;13;
49708;PMS5003;35601;55.902;13.606;2023-02-28T13:41:40;16;15;
49708;PMS5003;35601;55.902;13.606;2023-02-28T13:44:03;9;9;
49708;PMS5003;35601;55.902;13.606;2023-02-28T13:46:27;7;5;
49708;PMS5003;35601;55.902;13.606;2023-02-28T13:48:54;2;2;
49708;PMS5003;35601;55.902;13.606;2023-02-28T13:56:10;13;9;
49708;PMS5003;35601;55.902;13.606;2023-02-28T13:58:41;12;11;
49708;PMS5003;35601;55.902;13.606;2023-02-28T14:01:08;8;7;
49708;PMS5003;35601;55.902;13.606;2023-02-28T14:03:31;11;11;
49708;PMS5003;35601;55.902;13.606;2023-02-28T14:08:16;8;8;
49708;PMS5003;35601;55.902;13.606;2023-02-28T14:10:42;8;8;
49708;PMS5003;35601;55.902;13.606;2023-02-28T14:13:13;7;7;
49708;PMS5003;35601;55.902;13.606;2023-02-28T14:15:38;10;6;
49708;PMS5003;35601;55.902;13.606;2023-02-28T14:17:56;4;4;
49708;PMS5003;35601;55.902;13.606;2023-02-28T14:20:22;4;4;
49708;PMS5003;35601;55.902;13.606;2023-02-28T14:22:50;8;5;
49708;PMS5003;35601;55.902;13.606;2023-02-28T14:25:17;7;4;
49708;PMS5003;35601;55.902;13.606;2023-02-28T14:27:41;8;4;
49708;PMS5003;35601;55.902;13.606;2023-02-28T14:32:30;6;5;
49708;PMS5003;35601;55.902;13.606;2023-02-28T14:34:55;1;1;
49708;PMS5003;35601;55.902;13.606;2023-02-28T14:37:20;6;4;
49708;PMS5003;35601;55.902;13.606;2023-02-28T14:39:44;8;5;
49708;PMS5003;35601;55.902;13.606;2023-02-28T14:44:35;3;3;
49708;PMS5003;35601;55.902;13.606;2023-02-28T14:47:02;3;3;
49708;PMS5003;35601;55.902;13.606;2023-02-28T14:49:27;3;3;
49708;PMS5003;35601;55.902;13.606;2023-02-28T14:54:16;4;3;
49708;PMS5003;35601;55.902;13.606;2023-02-28T14:56:42;4;4;
49708;PMS5003;35601;55.902;13.606;2023-02-28T15:01:32;5;3;
49708;PMS5003;35601;55.902;13.606;2023-02-28T15:04:00;2;2;
49708;PMS5003;35601;55.902;13.606;2023-02-28T15:06:23;4;3;
49708;PMS5003;35601;55.902;13.606;2023-02-28T15:08:48;4;2;
49708;PMS5003;35601;55.902;13.606;2023-02-28T15:11:14;4;4;
49708;PMS5003;35601;55.902;13.606;2023-02-28T15:13:39;7;5;
49708;PMS5003;35601;55.902;13.606;2023-02-28T15:16:07;4;3;
49708;PMS5003;35601;55.902;13.606;2023-02-28T15:18:33;4;3;
49708;PMS5003;35601;55.902;13.606;2023-02-28T15:20:55;4;4;
49708;PMS5003;35601;55.902;13.606;2023-02-28T15:23:20;7;7;
49708;PMS5003;35601;55.902;13.606;2023-02-28T15:25:45;6;4;
49708;PMS5003;35601;55.902;13.606;2023-02-28T15:28:12;7;6;
49708;PMS5003;35601;55.902;13.606;2023-02-28T15:30:36;10;8;
49708;PMS5003;35601;55.902;13.606;2023-02-28T15:33:02;8;6;
49708;PMS5003;35601;55.902;13.606;2023-02-28T15:35:28;8;6;
49708;PMS5003;35601;55.902;13.606;2023-02-28T15:37:53;7;6;
49708;PMS5003;35601;55.902;13.606;2023-02-28T15:40:17;8;5;
49708;PMS5003;35601;55.902;13.606;2023-02-28T15:42:43;9;6;
49708;PMS5003;35601;55.902;13.606;2023-02-28T15:47:34;7;6;
49708;PMS5003;35601;55.902;13.606;2023-02-28T15:50:01;7;5;
49708;PMS5003;35601;55.902;13.606;2023-02-28T15:52:28;8;8;
49708;PMS5003;35601;55.902;13.606;2023-02-28T15:54:50;6;6;
49708;PMS5003;35601;55.902;13.606;2023-02-28T15:57:17;6;5;
49708;PMS5003;35601;55.902;13.606;2023-02-28T15:59:42;5;4;
49708;PMS5003;35601;55.902;13.606;2023-02-28T16:02:13;8;6;
49708;PMS5003;35601;55.902;13.606;2023-02-28T16:04:31;7;6;
49708;PMS5003;35601;55.902;13.606;2023-02-28T16:07:02;5;5;
49708;PMS5003;35601;55.902;13.606;2023-02-28T16:09:22;5;5;
49708;PMS5003;35601;55.902;13.606;2023-02-28T16:11:49;9;6;
49708;PMS5003;35601;55.902;13.606;2023-02-28T16:14:15;5;4;
49708;PMS5003;35601;55.902;13.606;2023-02-28T16:16:43;6;5;
49708;PMS5003;35601;55.902;13.606;2023-02-28T16:19:03;7;5;
49708;PMS5003;35601;55.902;13.606;2023-02-28T16:21:28;3;3;
49708;PMS5003;35601;55.902;13.606;2023-02-28T16:23:54;4;4;
49708;PMS5003;35601;55.902;13.606;2023-02-28T16:26:21;4;4;
49708;PMS5003;35601;55.902;13.606;2023-02-28T16:28:44;6;5;
49708;PMS5003;35601;55.902;13.606;2023-02-28T16:31:10;6;5;
49708;PMS5003;35601;55.902;13.606;2023-02-28T16:33:35;5;5;
49708;PMS5003;35601;55.902;13.606;2023-02-28T16:36:00;4;4;
49708;PMS5003;35601;55.902;13.606;2023-02-28T16:38:27;6;5;
49708;PMS5003;35601;55.902;13.606;2023-02-28T16:40:59;9;7;
49708;PMS5003;35601;55.902;13.606;2023-02-28T16:43:17;7;6;
49708;PMS5003;35601;55.902;13.606;2023-02-28T16:45:42;7;7;
49708;PMS5003;35601;55.902;13.606;2023-02-28T16:48:08;6;6;
49708;PMS5003;35601;55.902;13.606;2023-02-28T16:50:33;4;4;
49708;PMS5003;35601;55.902;13.606;2023-02-28T16:52:58;8;6;
49708;PMS5003;35601;55.902;13.606;2023-02-28T16:55:25;5;5;
49708;PMS5003;35601;55.902;13.606;2023-02-28T16:57:50;9;8;
49708;PMS5003;35601;55.902;13.606;2023-02-28T17:00:16;9;9;